<?xml version="1.0" encoding="UTF-8" standalone="no" ?>
<gpx xmlns="http://www.topografix.com/GPX/1/1" xmlns:xsi="http://www.w3.org/2001/XMLSchema-instance" xsi:schemaLocation="http://www.topografix.com/GPX/1/1 http://www.topografix.com/GPX/1/1/gpx.xsd" version="1.1" creator="VisuGPX - https://www.visugpx.com">
  <metadata>
    <name>Monferran-Saves deloc Oct 2022</name>
    <desc><![CDATA[boucle à partir de Monferran-Savès, par l'Hératé, Laruma, Borde longue et Riscle, 8km pour 80m de dénivelé: rando délocalisée LRC]]></desc>
  </metadata>
  <trk>
    <name><![CDATA[15567857-IJRC Monferran-Saves deloc Oct 2022]]></name>
    <extensions>
      <line xmlns="http://www.topografix.com/GPX/gpx_style/0/2">
        <color>0000FF</color>
        <width>4</width>
      </line>
    </extensions>
    <trkseg>
      <trkpt lat="43.59551" lon="0.97859">
        <ele>180</ele>
        <time>2022-09-18T15:42:57Z</time>
      </trkpt>
      <trkpt lat="43.59484" lon="0.97867">
        <ele>181</ele>
        <time>2022-09-18T15:43:51Z</time>
      </trkpt>
      <trkpt lat="43.59407" lon="0.97892">
        <ele>181</ele>
        <time>2022-09-18T15:44:54Z</time>
      </trkpt>
      <trkpt lat="43.59389" lon="0.97903">
        <ele>181</ele>
        <time>2022-09-18T15:45:10Z</time>
      </trkpt>
      <trkpt lat="43.59366" lon="0.97923">
        <ele>181</ele>
        <time>2022-09-18T15:45:32Z</time>
      </trkpt>
      <trkpt lat="43.59247" lon="0.98053">
        <ele>179</ele>
        <time>2022-09-18T15:47:33Z</time>
      </trkpt>
      <trkpt lat="43.59189" lon="0.9812">
        <ele>178</ele>
        <time>2022-09-18T15:48:34Z</time>
      </trkpt>
      <trkpt lat="43.59164" lon="0.98154">
        <ele>177</ele>
        <time>2022-09-18T15:49:02Z</time>
      </trkpt>
      <trkpt lat="43.59161" lon="0.98167">
        <ele>176</ele>
        <time>2022-09-18T15:49:10Z</time>
      </trkpt>
      <trkpt lat="43.59146" lon="0.98167">
        <ele>177</ele>
        <time>2022-09-18T15:49:22Z</time>
      </trkpt>
      <trkpt lat="43.59114" lon="0.98172">
        <ele>178</ele>
        <time>2022-09-18T15:49:48Z</time>
      </trkpt>
      <trkpt lat="43.58926" lon="0.98275">
        <ele>175</ele>
        <time>2022-09-18T15:52:29Z</time>
      </trkpt>
      <trkpt lat="43.58897" lon="0.98294">
        <ele>173</ele>
        <time>2022-09-18T15:52:55Z</time>
      </trkpt>
      <trkpt lat="43.58793" lon="0.98305">
        <ele>169</ele>
        <time>2022-09-18T15:54:19Z</time>
      </trkpt>
      <trkpt lat="43.58803" lon="0.98253">
        <ele>171</ele>
        <time>2022-09-18T15:54:50Z</time>
      </trkpt>
      <trkpt lat="43.58825" lon="0.9814">
        <ele>171</ele>
        <time>2022-09-18T15:55:58Z</time>
      </trkpt>
      <trkpt lat="43.58832" lon="0.98123">
        <ele>170</ele>
        <time>2022-09-18T15:56:09Z</time>
      </trkpt>
      <trkpt lat="43.58877" lon="0.98038">
        <ele>170</ele>
        <time>2022-09-18T15:57:10Z</time>
      </trkpt>
      <trkpt lat="43.58892" lon="0.98004">
        <ele>170</ele>
        <time>2022-09-18T15:57:33Z</time>
      </trkpt>
      <trkpt lat="43.58925" lon="0.97909">
        <ele>172</ele>
        <time>2022-09-18T15:58:34Z</time>
      </trkpt>
      <trkpt lat="43.58953" lon="0.97837">
        <ele>173</ele>
        <time>2022-09-18T15:59:22Z</time>
      </trkpt>
      <trkpt lat="43.58961" lon="0.97822">
        <ele>173</ele>
        <time>2022-09-18T15:59:33Z</time>
      </trkpt>
      <trkpt lat="43.59023" lon="0.97745">
        <ele>173</ele>
        <time>2022-09-18T16:00:39Z</time>
      </trkpt>
      <trkpt lat="43.59048" lon="0.977">
        <ele>173</ele>
        <time>2022-09-18T16:01:12Z</time>
      </trkpt>
      <trkpt lat="43.59061" lon="0.9768">
        <ele>173</ele>
        <time>2022-09-18T16:01:28Z</time>
      </trkpt>
      <trkpt lat="43.59078" lon="0.9766">
        <ele>172</ele>
        <time>2022-09-18T16:01:46Z</time>
      </trkpt>
      <trkpt lat="43.59135" lon="0.97609">
        <ele>173</ele>
        <time>2022-09-18T16:02:40Z</time>
      </trkpt>
      <trkpt lat="43.59163" lon="0.97575">
        <ele>173</ele>
        <time>2022-09-18T16:03:10Z</time>
      </trkpt>
      <trkpt lat="43.59185" lon="0.97545">
        <ele>174</ele>
        <time>2022-09-18T16:03:35Z</time>
      </trkpt>
      <trkpt lat="43.59199" lon="0.97522">
        <ele>175</ele>
        <time>2022-09-18T16:03:52Z</time>
      </trkpt>
      <trkpt lat="43.59213" lon="0.97489">
        <ele>175</ele>
        <time>2022-09-18T16:04:14Z</time>
      </trkpt>
      <trkpt lat="43.59218" lon="0.97484">
        <ele>175</ele>
        <time>2022-09-18T16:04:19Z</time>
      </trkpt>
      <trkpt lat="43.59217" lon="0.9748">
        <ele>175</ele>
        <time>2022-09-18T16:04:22Z</time>
      </trkpt>
      <trkpt lat="43.59222" lon="0.97469">
        <ele>175</ele>
        <time>2022-09-18T16:04:29Z</time>
      </trkpt>
      <trkpt lat="43.59231" lon="0.97455">
        <ele>176</ele>
        <time>2022-09-18T16:04:40Z</time>
      </trkpt>
      <trkpt lat="43.59253" lon="0.97423">
        <ele>176</ele>
        <time>2022-09-18T16:05:06Z</time>
      </trkpt>
      <trkpt lat="43.59299" lon="0.97377">
        <ele>179</ele>
        <time>2022-09-18T16:05:51Z</time>
      </trkpt>
      <trkpt lat="43.59319" lon="0.97362">
        <ele>179</ele>
        <time>2022-09-18T16:06:09Z</time>
      </trkpt>
      <trkpt lat="43.59341" lon="0.97333">
        <ele>179</ele>
        <time>2022-09-18T16:06:34Z</time>
      </trkpt>
      <trkpt lat="43.59356" lon="0.97303">
        <ele>180</ele>
        <time>2022-09-18T16:06:55Z</time>
      </trkpt>
      <trkpt lat="43.5937" lon="0.97268">
        <ele>181</ele>
        <time>2022-09-18T16:07:18Z</time>
      </trkpt>
      <trkpt lat="43.59377" lon="0.97245">
        <ele>182</ele>
        <time>2022-09-18T16:07:33Z</time>
      </trkpt>
      <trkpt lat="43.59387" lon="0.9718">
        <ele>181</ele>
        <time>2022-09-18T16:08:11Z</time>
      </trkpt>
      <trkpt lat="43.59408" lon="0.97021">
        <ele>181</ele>
        <time>2022-09-18T16:09:45Z</time>
      </trkpt>
      <trkpt lat="43.59423" lon="0.96954">
        <ele>181</ele>
        <time>2022-09-18T16:10:25Z</time>
      </trkpt>
      <trkpt lat="43.59434" lon="0.96923">
        <ele>182</ele>
        <time>2022-09-18T16:10:45Z</time>
      </trkpt>
      <trkpt lat="43.59494" lon="0.96768">
        <ele>181</ele>
        <time>2022-09-18T16:12:27Z</time>
      </trkpt>
      <trkpt lat="43.59546" lon="0.96675">
        <ele>183</ele>
        <time>2022-09-18T16:13:35Z</time>
      </trkpt>
      <trkpt lat="43.5955" lon="0.96666">
        <ele>184</ele>
        <time>2022-09-18T16:13:42Z</time>
      </trkpt>
      <trkpt lat="43.5955" lon="0.96657">
        <ele>184</ele>
        <time>2022-09-18T16:13:47Z</time>
      </trkpt>
      <trkpt lat="43.59543" lon="0.96631">
        <ele>183</ele>
        <time>2022-09-18T16:14:03Z</time>
      </trkpt>
      <trkpt lat="43.5954" lon="0.96608">
        <ele>183</ele>
        <time>2022-09-18T16:14:16Z</time>
      </trkpt>
      <trkpt lat="43.59549" lon="0.96565">
        <ele>183</ele>
        <time>2022-09-18T16:14:42Z</time>
      </trkpt>
      <trkpt lat="43.59553" lon="0.96505">
        <ele>182</ele>
        <time>2022-09-18T16:15:17Z</time>
      </trkpt>
      <trkpt lat="43.59557" lon="0.96497">
        <ele>181</ele>
        <time>2022-09-18T16:15:23Z</time>
      </trkpt>
      <trkpt lat="43.59581" lon="0.96316">
        <ele>189</ele>
        <time>2022-09-18T16:17:10Z</time>
      </trkpt>
      <trkpt lat="43.59589" lon="0.96255">
        <ele>194</ele>
        <time>2022-09-18T16:17:46Z</time>
      </trkpt>
      <trkpt lat="43.59597" lon="0.9621">
        <ele>197</ele>
        <time>2022-09-18T16:18:13Z</time>
      </trkpt>
      <trkpt lat="43.59597" lon="0.96115">
        <ele>202</ele>
        <time>2022-09-18T16:19:08Z</time>
      </trkpt>
      <trkpt lat="43.596" lon="0.96085">
        <ele>203</ele>
        <time>2022-09-18T16:19:25Z</time>
      </trkpt>
      <trkpt lat="43.59615" lon="0.95978">
        <ele>207</ele>
        <time>2022-09-18T16:20:28Z</time>
      </trkpt>
      <trkpt lat="43.59625" lon="0.95931">
        <ele>207</ele>
        <time>2022-09-18T16:20:57Z</time>
      </trkpt>
      <trkpt lat="43.59647" lon="0.95847">
        <ele>210</ele>
        <time>2022-09-18T16:21:49Z</time>
      </trkpt>
      <trkpt lat="43.59683" lon="0.95703">
        <ele>216</ele>
        <time>2022-09-18T16:23:17Z</time>
      </trkpt>
      <trkpt lat="43.59722" lon="0.95497">
        <ele>219</ele>
        <time>2022-09-18T16:25:20Z</time>
      </trkpt>
      <trkpt lat="43.59731" lon="0.95455">
        <ele>220</ele>
        <time>2022-09-18T16:25:46Z</time>
      </trkpt>
      <trkpt lat="43.59733" lon="0.95359">
        <ele>220</ele>
        <time>2022-09-18T16:26:41Z</time>
      </trkpt>
      <trkpt lat="43.59735" lon="0.95334">
        <ele>220</ele>
        <time>2022-09-18T16:26:56Z</time>
      </trkpt>
      <trkpt lat="43.59741" lon="0.95304">
        <ele>221</ele>
        <time>2022-09-18T16:27:14Z</time>
      </trkpt>
      <trkpt lat="43.5982" lon="0.95099">
        <ele>225</ele>
        <time>2022-09-18T16:29:29Z</time>
      </trkpt>
      <trkpt lat="43.59965" lon="0.94842">
        <ele>234</ele>
        <time>2022-09-18T16:32:38Z</time>
      </trkpt>
      <trkpt lat="43.60007" lon="0.94865">
        <ele>235</ele>
        <time>2022-09-18T16:33:14Z</time>
      </trkpt>
      <trkpt lat="43.60173" lon="0.94956">
        <ele>236</ele>
        <time>2022-09-18T16:35:37Z</time>
      </trkpt>
      <trkpt lat="43.60207" lon="0.94976">
        <ele>236</ele>
        <time>2022-09-18T16:36:06Z</time>
      </trkpt>
      <trkpt lat="43.6042" lon="0.95103">
        <ele>223</ele>
        <time>2022-09-18T16:39:12Z</time>
      </trkpt>
      <trkpt lat="43.6043" lon="0.95113">
        <ele>223</ele>
        <time>2022-09-18T16:39:22Z</time>
      </trkpt>
      <trkpt lat="43.60562" lon="0.95282">
        <ele>222</ele>
        <time>2022-09-18T16:41:46Z</time>
      </trkpt>
      <trkpt lat="43.60568" lon="0.95297">
        <ele>222</ele>
        <time>2022-09-18T16:41:56Z</time>
      </trkpt>
      <trkpt lat="43.60569" lon="0.95318">
        <ele>222</ele>
        <time>2022-09-18T16:42:08Z</time>
      </trkpt>
      <trkpt lat="43.6057" lon="0.95474">
        <ele>225</ele>
        <time>2022-09-18T16:43:39Z</time>
      </trkpt>
      <trkpt lat="43.60577" lon="0.95509">
        <ele>228</ele>
        <time>2022-09-18T16:44:00Z</time>
      </trkpt>
      <trkpt lat="43.606" lon="0.95552">
        <ele>231</ele>
        <time>2022-09-18T16:44:31Z</time>
      </trkpt>
      <trkpt lat="43.60677" lon="0.95686">
        <ele>232</ele>
        <time>2022-09-18T16:46:10Z</time>
      </trkpt>
      <trkpt lat="43.60686" lon="0.95717">
        <ele>230</ele>
        <time>2022-09-18T16:46:29Z</time>
      </trkpt>
      <trkpt lat="43.60763" lon="0.95916">
        <ele>234</ele>
        <time>2022-09-18T16:48:40Z</time>
      </trkpt>
      <trkpt lat="43.60798" lon="0.96009">
        <ele>239</ele>
        <time>2022-09-18T16:49:41Z</time>
      </trkpt>
      <trkpt lat="43.60792" lon="0.96012">
        <ele>238</ele>
        <time>2022-09-18T16:49:46Z</time>
      </trkpt>
      <trkpt lat="43.60787" lon="0.96009">
        <ele>238</ele>
        <time>2022-09-18T16:49:50Z</time>
      </trkpt>
      <trkpt lat="43.60766" lon="0.95946">
        <ele>235</ele>
        <time>2022-09-18T16:50:31Z</time>
      </trkpt>
      <trkpt lat="43.60759" lon="0.95943">
        <ele>235</ele>
        <time>2022-09-18T16:50:36Z</time>
      </trkpt>
      <trkpt lat="43.60742" lon="0.95961">
        <ele>235</ele>
        <time>2022-09-18T16:50:54Z</time>
      </trkpt>
      <trkpt lat="43.60672" lon="0.96032">
        <ele>232</ele>
        <time>2022-09-18T16:52:03Z</time>
      </trkpt>
      <trkpt lat="43.60647" lon="0.96047">
        <ele>231</ele>
        <time>2022-09-18T16:52:25Z</time>
      </trkpt>
      <trkpt lat="43.6057" lon="0.96121">
        <ele>229</ele>
        <time>2022-09-18T16:53:40Z</time>
      </trkpt>
      <trkpt lat="43.60511" lon="0.96217">
        <ele>227</ele>
        <time>2022-09-18T16:54:53Z</time>
      </trkpt>
      <trkpt lat="43.60485" lon="0.96255">
        <ele>225</ele>
        <time>2022-09-18T16:55:23Z</time>
      </trkpt>
      <trkpt lat="43.60424" lon="0.96336">
        <ele>224</ele>
        <time>2022-09-18T16:56:31Z</time>
      </trkpt>
      <trkpt lat="43.60386" lon="0.96402">
        <ele>226</ele>
        <time>2022-09-18T16:57:20Z</time>
      </trkpt>
      <trkpt lat="43.60288" lon="0.96532">
        <ele>227</ele>
        <time>2022-09-18T16:59:09Z</time>
      </trkpt>
      <trkpt lat="43.60269" lon="0.96551">
        <ele>227</ele>
        <time>2022-09-18T16:59:28Z</time>
      </trkpt>
      <trkpt lat="43.60214" lon="0.96659">
        <ele>223</ele>
        <time>2022-09-18T17:00:44Z</time>
      </trkpt>
      <trkpt lat="43.6013" lon="0.969">
        <ele>214</ele>
        <time>2022-09-18T17:03:19Z</time>
      </trkpt>
      <trkpt lat="43.60122" lon="0.9693">
        <ele>213</ele>
        <time>2022-09-18T17:03:38Z</time>
      </trkpt>
      <trkpt lat="43.60085" lon="0.96897">
        <ele>213</ele>
        <time>2022-09-18T17:04:13Z</time>
      </trkpt>
      <trkpt lat="43.59951" lon="0.96781">
        <ele>214</ele>
        <time>2022-09-18T17:06:20Z</time>
      </trkpt>
      <trkpt lat="43.59937" lon="0.96891">
        <ele>210</ele>
        <time>2022-09-18T17:07:24Z</time>
      </trkpt>
      <trkpt lat="43.59882" lon="0.97328">
        <ele>190</ele>
        <time>2022-09-18T17:11:42Z</time>
      </trkpt>
      <trkpt lat="43.59878" lon="0.97372">
        <ele>189</ele>
        <time>2022-09-18T17:12:07Z</time>
      </trkpt>
      <trkpt lat="43.59879" lon="0.97404">
        <ele>187</ele>
        <time>2022-09-18T17:12:26Z</time>
      </trkpt>
      <trkpt lat="43.59885" lon="0.97431">
        <ele>187</ele>
        <time>2022-09-18T17:12:42Z</time>
      </trkpt>
      <trkpt lat="43.59926" lon="0.97557">
        <ele>188</ele>
        <time>2022-09-18T17:14:02Z</time>
      </trkpt>
      <trkpt lat="43.59934" lon="0.97576">
        <ele>189</ele>
        <time>2022-09-18T17:14:15Z</time>
      </trkpt>
      <trkpt lat="43.59929" lon="0.97588">
        <ele>189</ele>
        <time>2022-09-18T17:14:23Z</time>
      </trkpt>
      <trkpt lat="43.59911" lon="0.97629">
        <ele>190</ele>
        <time>2022-09-18T17:14:51Z</time>
      </trkpt>
      <trkpt lat="43.59875" lon="0.97605">
        <ele>188</ele>
        <time>2022-09-18T17:15:23Z</time>
      </trkpt>
      <trkpt lat="43.59838" lon="0.97583">
        <ele>185</ele>
        <time>2022-09-18T17:15:55Z</time>
      </trkpt>
      <trkpt lat="43.59826" lon="0.97566">
        <ele>185</ele>
        <time>2022-09-18T17:16:09Z</time>
      </trkpt>
      <trkpt lat="43.59806" lon="0.97552">
        <ele>185</ele>
        <time>2022-09-18T17:16:27Z</time>
      </trkpt>
      <trkpt lat="43.59783" lon="0.97552">
        <ele>186</ele>
        <time>2022-09-18T17:16:45Z</time>
      </trkpt>
      <trkpt lat="43.59722" lon="0.97583">
        <ele>186</ele>
        <time>2022-09-18T17:17:37Z</time>
      </trkpt>
      <trkpt lat="43.59609" lon="0.97712">
        <ele>184</ele>
        <time>2022-09-18T17:19:35Z</time>
      </trkpt>
      <trkpt lat="43.59618" lon="0.97755">
        <ele>182</ele>
        <time>2022-09-18T17:20:01Z</time>
      </trkpt>
      <trkpt lat="43.59621" lon="0.97788">
        <ele>181</ele>
        <time>2022-09-18T17:20:20Z</time>
      </trkpt>
      <trkpt lat="43.59613" lon="0.97837">
        <ele>179</ele>
        <time>2022-09-18T17:20:49Z</time>
      </trkpt>
      <trkpt lat="43.59593" lon="0.97843">
        <ele>179</ele>
        <time>2022-09-18T17:21:06Z</time>
      </trkpt>
      <trkpt lat="43.59576" lon="0.97854">
        <ele>179</ele>
        <time>2022-09-18T17:21:21Z</time>
      </trkpt>
      <trkpt lat="43.59555" lon="0.97859">
        <ele>180</ele>
        <time>2022-09-18T17:21:38Z</time>
      </trkpt>
      <trkpt lat="43.59551" lon="0.97859">
        <ele>180</ele>
        <time>2022-09-18T17:21:41Z</time>
      </trkpt>
    </trkseg>
  </trk>
</gpx>